Browns Summit, North Carolina
Current Conditions -  °F | °C
As of 12:54 PM on Sunday 28 Dec 2014 (Local Time) from KGSO Reporting Station
Light Rain Light Rain  
Wind Chill: 57°   Ceiling: 1000
Heat Index: 57°   Visibility: 10mi
Dew Point: 52°   Wind: 10mph
Humidity: 83%   Direction: 230°SW
Pressure: 29.99"   Gusts: NA
Location:  36.21°N, 79.71°W
Report Text: KGSO 281754Z 23009KT 10SM -RA OVC010 14/11 A2999 RMK AO2 RAB51 SLP152 P0000 60000 T01390111 10139 20106 58020
Loading
Personal Weather Stations






























Interactive Weather Map New forecast layout! Learn more

10-Day Weather Forecast

Advertisements
Track Severe Weather on mobile